Time;durP1;ratioP1;P1;durP2;ratioP2;P2;SDS_P1;SDS_P2;PMS_P1;PMS_P2;Temp;Humidity;BMP_temperature;BMP_pressure;BME280_temperature;BME280_humidity;BME280_pressure;Samples;Min_cycle;Max_cycle;Signal;HPM_P1;HPM_P2
2021/11/18 00:02:01;;;;;;;32.42;14.32;;;;;;;2.21;100.00;100682.66;4945820;28;20101;-64
2021/11/18 00:04:45;;;;;;;28.23;13.93;;;;;;;2.30;100.00;100677.69;4942685;28;20569;-69
2021/11/18 00:07:30;;;;;;;27.63;14.40;;;;;;;2.24;100.00;100667.91;4944884;28;20419;-71
2021/11/18 00:10:34;;;;;;;26.60;14.75;;;;;;;2.19;100.00;100672.16;4943932;28;20138;-67
2021/11/18 00:13:22;;;;;;;30.88;14.55;;;;;;;2.27;100.00;100672.34;4938882;28;20053;-65
2021/11/18 00:16:07;;;;;;;29.55;15.30;;;;;;;2.29;100.00;100668.94;4942641;28;20558;-66
2021/11/18 00:18:52;;;;;;;28.25;13.40;;;;;;;2.39;100.00;100673.56;4931807;28;20061;-66
2021/11/18 00:21:40;;;;;;;27.70;14.23;;;;;;;2.39;100.00;100670.06;4944188;29;20114;-67
2021/11/18 00:24:24;;;;;;;28.92;14.27;;;;;;;2.18;100.00;100654.66;4943109;28;20057;-67
2021/11/18 00:27:09;;;;;;;33.88;14.45;;;;;;;2.29;100.00;100658.47;4944126;28;20070;-64
2021/11/18 00:29:54;;;;;;;28.02;14.35;;;;;;;2.16;100.00;100666.84;4934883;28;20054;-73
2021/11/18 00:32:40;;;;;;;31.67;14.05;;;;;;;2.10;100.00;100664.03;4935125;28;20074;-72
2021/11/18 00:35:28;;;;;;;29.13;14.07;;;;;;;2.20;100.00;100667.78;4954647;28;20050;-68
2021/11/18 00:38:14;;;;;;;33.35;14.82;;;;;;;2.11;100.00;100659.69;4944429;28;20054;-64
2021/11/18 00:41:03;;;;;;;29.33;14.20;;;;;;;2.18;100.00;100664.25;4946548;28;20050;-65
2021/11/18 00:43:49;;;;;;;30.88;15.10;;;;;;;2.18;100.00;100664.25;4948246;28;20427;-71
2021/11/18 00:46:35;;;;;;;33.92;15.60;;;;;;;2.15;100.00;100657.22;4955545;28;20096;-63
2021/11/18 00:49:21;;;;;;;32.05;14.52;;;;;;;2.21;100.00;100644.28;4940263;29;20050;-65
2021/11/18 00:52:06;;;;;;;30.13;13.55;;;;;;;2.15;100.00;100652.00;4947529;28;20138;-67
2021/11/18 00:54:51;;;;;;;;;;;;;;;2.19;100.00;100656.47;4943245;28;20055;-65
2021/11/18 00:57:36;;;;;;;29.35;14.68;;;;;;;2.11;100.00;100651.84;4958598;28;19941;-65
2021/11/18 01:00:27;;;;;;;29.90;14.43;;;;;;;2.18;100.00;100633.72;4959011;28;20050;-64
2021/11/18 01:03:16;;;;;;;29.38;13.32;;;;;;;2.18;100.00;100636.34;4943905;29;20054;-63
2021/11/18 01:06:02;;;;;;;30.77;14.48;;;;;;;2.12;100.00;100641.44;4945456;28;20049;-64
2021/11/18 01:08:47;;;;;;;32.42;14.88;;;;;;;2.07;100.00;100629.97;4943524;28;20050;-64
2021/11/18 01:11:33;;;;;;;29.85;15.10;;;;;;;2.06;100.00;100632.53;4960109;28;20526;-63
2021/11/18 01:14:21;;;;;;;29.60;14.82;;;;;;;2.11;100.00;100623.06;4945359;28;20061;-63
2021/11/18 01:17:06;;;;;;;36.63;15.20;;;;;;;2.09;100.00;100623.03;4952831;28;20049;-64
2021/11/18 01:19:51;;;;;;;38.38;16.60;;;;;;;1.99;100.00;100622.75;4954413;28;20050;-63
2021/11/18 01:22:37;;;;;;;34.55;15.73;;;;;;;1.98;100.00;100620.97;4943130;28;20723;-65
2021/11/18 01:25:23;;;;;;;33.67;15.38;;;;;;;2.04;100.00;100603.72;4945321;28;20062;-63
2021/11/18 01:28:10;;;;;;;29.55;14.73;;;;;;;2.15;100.00;100604.00;4941600;28;20146;-70
2021/11/18 01:30:55;;;;;;;32.15;14.73;;;;;;;2.20;100.00;100611.13;4939085;29;20586;-73
2021/11/18 01:33:44;;;;;;;31.98;14.80;;;;;;;2.15;100.00;100611.84;4942055;28;20058;-64
2021/11/18 01:36:31;;;;;;;33.33;14.93;;;;;;;2.06;100.00;100596.78;4943912;28;20578;-65
2021/11/18 01:39:22;;;;;;;28.75;13.73;;;;;;;2.25;100.00;100595.56;4957597;28;20542;-63
2021/11/18 01:42:08;;;;;;;31.17;14.18;;;;;;;2.22;100.00;100600.72;4943588;28;20094;-63
2021/11/18 01:44:54;;;;;;;26.17;12.68;;;;;;;2.11;100.00;100594.31;4952589;28;20098;-60
2021/11/18 01:47:41;;;;;;;24.02;12.10;;;;;;;2.04;100.00;100593.25;4939947;28;20058;-63
2021/11/18 01:50:31;;;;;;;24.50;11.88;;;;;;;2.08;100.00;100605.56;4955955;28;20062;-61
2021/11/18 01:53:27;;;;;;;25.60;11.20;;;;;;;2.15;100.00;100598.78;4955113;28;20059;-62
2021/11/18 01:56:18;;;;;;;23.50;11.40;;;;;;;2.07;100.00;100603.81;4943443;28;20067;-64
2021/11/18 01:59:12;;;;;;;24.13;10.88;;;;;;;2.02;100.00;100597.53;4954345;28;20085;-67
2021/11/18 02:02:03;;;;;;;22.45;10.65;;;;;;;1.94;100.00;100588.59;4951993;28;20583;-62
2021/11/18 02:05:08;;;;;;;24.92;11.02;;;;;;;1.89;100.00;100589.31;4940701;28;20047;-71
2021/11/18 02:07:54;;;;;;;17.98;9.35;;;;;;;1.83;100.00;100597.91;4940088;29;20058;-63
2021/11/18 02:11:03;;;;;;;18.75;9.45;;;;;;;1.87;100.00;100584.09;4946868;28;20078;-62
2021/11/18 02:13:48;;;;;;;22.23;9.65;;;;;;;1.87;100.00;100583.19;4939496;28;20062;-66
2021/11/18 02:16:36;;;;;;;22.63;8.27;;;;;;;1.97;100.00;100578.25;4944103;28;20054;-63
2021/11/18 02:19:22;;;;;;;17.25;7.72;;;;;;;1.87;100.00;100570.13;4944328;28;20187;-63
2021/11/18 02:22:07;;;;;;;18.17;7.50;;;;;;;1.94;100.00;100575.53;4944759;28;20054;-63
2021/11/18 02:25:05;;;;;;;15.30;7.07;;;;;;;1.92;100.00;100563.25;4949867;28;20144;-64
2021/11/18 02:27:50;;;;;;;15.80;7.07;;;;;;;2.00;100.00;100562.63;4937550;29;20546;-63
2021/11/18 02:30:40;;;;;;;13.52;7.13;;;;;;;2.24;100.00;100565.88;4947161;28;20554;-62
2021/11/18 02:33:26;;;;;;;13.63;7.13;;;;;;;2.19;100.00;100556.16;4932672;29;20055;-62
2021/11/18 02:36:12;;;;;;;18.10;7.13;;;;;;;2.39;100.00;100561.06;4939275;28;20086;-72
2021/11/18 02:38:57;;;;;;;16.10;7.80;;;;;;;2.52;100.00;100562.22;4944286;28;20150;-65
2021/11/18 02:41:44;;;;;;;15.38;7.95;;;;;;;2.36;100.00;100552.22;4943239;28;20141;-67
2021/11/18 02:44:29;;;;;;;19.27;7.50;;;;;;;2.34;100.00;100570.50;4955892;28;20093;-64
2021/11/18 02:47:14;;;;;;;13.60;7.70;;;;;;;2.09;100.00;100556.78;4945218;28;20118;-64
2021/11/18 02:50:00;;;;;;;17.98;7.15;;;;;;;1.77;100.00;100553.28;4961307;28;20058;-73
2021/11/18 02:52:47;;;;;;;14.80;6.28;;;;;;;1.68;100.00;100539.06;4948263;28;20102;-65
2021/11/18 02:55:38;;;;;;;13.05;6.50;;;;;;;1.66;100.00;100544.25;4945318;28;20079;-65
2021/11/18 02:58:24;;;;;;;17.17;7.05;;;;;;;1.55;100.00;100550.94;4932964;28;20427;-63
2021/11/18 03:01:23;;;;;;;17.73;7.38;;;;;;;1.61;100.00;100558.94;4949493;28;20090;-64
2021/11/18 03:04:11;;;;;;;16.67;6.68;;;;;;;1.55;100.00;100526.53;4942262;28;20050;-66
2021/11/18 03:06:56;;;;;;;18.08;7.00;;;;;;;1.52;100.00;100548.25;4949700;29;20110;-65
2021/11/18 03:09:41;;;;;;;15.43;6.88;;;;;;;1.53;100.00;100550.00;4946498;28;20102;-65
2021/11/18 03:12:26;;;;;;;17.13;7.07;;;;;;;1.46;100.00;100541.97;4966935;28;20049;-64
2021/11/18 03:15:14;;;;;;;12.05;6.47;;;;;;;1.47;100.00;100538.50;4957111;28;20069;-63
2021/11/18 03:18:00;;;;;;;17.27;6.25;;;;;;;1.40;100.00;100539.16;4959919;28;20058;-67
2021/11/18 03:20:45;;;;;;;10.73;4.75;;;;;;;1.34;100.00;100534.63;4936468;29;20139;-67
2021/11/18 03:23:31;;;;;;;12.70;5.97;;;;;;;1.39;100.00;100534.78;4929824;29;20383;-66
2021/11/18 03:26:24;;;;;;;17.17;7.00;;;;;;;1.54;100.00;100537.84;4946086;28;20723;-72
2021/11/18 03:29:10;;;;;;;12.77;6.18;;;;;;;1.71;100.00;100524.38;4952861;28;20050;-73
2021/11/18 03:31:55;;;;;;;10.88;5.57;;;;;;;1.61;100.00;100526.69;4927297;29;20074;-64
2021/11/18 03:34:40;;;;;;;15.57;6.20;;;;;;;1.74;100.00;100515.72;4930223;29;20488;-72
2021/11/18 03:37:25;;;;;;;13.98;6.55;;;;;;;1.74;100.00;100516.59;4932692;29;20062;-63
2021/11/18 03:40:12;;;;;;;12.40;5.93;;;;;;;1.65;100.00;100521.59;4942452;28;20474;-66
2021/11/18 03:42:59;;;;;;;15.38;6.28;;;;;;;1.65;100.00;100518.06;4947973;28;20097;-65
2021/11/18 03:45:48;;;;;;;14.85;6.70;;;;;;;1.58;100.00;100508.31;4946384;28;20105;-65
2021/11/18 03:48:33;;;;;;;17.17;6.68;;;;;;;1.52;100.00;100506.44;4947631;28;20149;-63
2021/11/18 03:51:20;;;;;;;16.05;6.93;;;;;;;1.63;100.00;100505.00;4929008;29;20230;-63
2021/11/18 03:54:07;;;;;;;17.33;7.47;;;;;;;1.75;100.00;100504.44;4936603;28;20251;-64
2021/11/18 03:56:55;;;;;;;24.50;7.97;;;;;;;1.95;100.00;100508.44;4960603;28;20086;-65
2021/11/18 03:59:42;;;;;;;16.13;7.72;;;;;;;1.92;100.00;100513.59;4944055;28;20590;-62
2021/11/18 04:02:36;;;;;;;18.00;7.75;;;;;;;1.91;100.00;100506.59;4928716;29;20087;-65
2021/11/18 04:05:24;;;;;;;16.63;7.32;;;;;;;1.58;100.00;100482.19;4933628;28;20497;-63
2021/11/18 04:08:09;;;;;;;19.30;8.48;;;;;;;1.46;100.00;100494.94;4929788;29;20054;-68
2021/11/18 04:10:56;;;;;;;20.75;8.43;;;;;;;1.58;100.00;100496.13;4925157;29;20085;-66
2021/11/18 04:13:42;;;;;;;17.42;7.38;;;;;;;1.56;100.00;100487.38;4945359;29;20054;-75
2021/11/18 04:16:27;;;;;;;18.17;7.32;;;;;;;1.40;100.00;100493.03;4949209;28;20388;-65
2021/11/18 04:19:15;;;;;;;17.77;8.05;;;;;;;1.47;100.00;100492.38;4961712;28;20098;-63
2021/11/18 04:22:02;;;;;;;15.45;7.75;;;;;;;1.44;100.00;100491.38;4944629;28;20397;-74
2021/11/18 04:24:53;;;;;;;18.88;8.63;;;;;;;1.27;100.00;100492.63;4959378;28;20150;-65
2021/11/18 04:27:39;;;;;;;16.77;8.25;;;;;;;1.26;100.00;100502.19;4958789;28;20746;-64
2021/11/18 04:30:34;;;;;;;13.70;6.93;;;;;;;1.16;100.00;100488.84;4936015;28;20094;-67
2021/11/18 04:33:37;;;;;;;16.83;7.82;;;;;;;0.83;100.00;100480.03;4955948;28;20070;-67
2021/11/18 04:36:26;;;;;;;20.25;7.53;;;;;;;0.74;100.00;100491.06;4936258;29;20050;-66
2021/11/18 04:39:11;;;;;;;18.85;8.55;;;;;;;0.98;100.00;100490.94;4929959;28;20118;-71
2021/11/18 04:41:56;;;;;;;;;;;;;;;1.10;100.00;100481.69;4940309;28;20051;-64
2021/11/18 04:44:42;;;;;;;14.85;7.70;;;;;;;1.04;100.00;100478.94;4951301;28;20296;-73
2021/11/18 04:47:27;;;;;;;17.85;7.68;;;;;;;1.06;100.00;100469.41;4957957;28;20058;-64
2021/11/18 04:50:13;;;;;;;14.93;6.63;;;;;;;1.03;100.00;100473.66;4942770;28;20554;-64
2021/11/18 04:52:58;;;;;;;17.40;7.55;;;;;;;0.94;100.00;100470.78;4929981;29;20050;-73
2021/11/18 04:55:45;;;;;;;14.63;6.90;;;;;;;1.09;100.00;100471.22;4945015;28;20058;-66
2021/11/18 04:58:32;;;;;;;16.20;7.28;;;;;;;1.16;100.00;100453.16;4924423;28;20086;-66
2021/11/18 05:01:20;;;;;;;13.30;6.25;;;;;;;1.11;100.00;100459.97;4939893;29;20566;-64
2021/11/18 05:04:08;;;;;;;16.52;7.53;;;;;;;0.92;100.00;100457.69;4917352;28;20063;-65
2021/11/18 05:06:54;;;;;;;12.18;7.10;;;;;;;1.13;100.00;100473.97;4925981;29;20146;-67
2021/11/18 05:09:39;;;;;;;14.30;6.95;;;;;;;0.94;100.00;100452.53;4942619;28;20176;-66
2021/11/18 05:12:24;;;;;;;12.07;6.65;;;;;;;1.01;100.00;100449.22;4912474;29;20054;-65
2021/11/18 05:15:14;;;;;;;14.52;6.90;;;;;;;1.11;100.00;100448.66;4950967;28;20422;-65
2021/11/18 05:17:59;;;;;;;21.45;6.95;;;;;;;1.28;100.00;100443.06;4956194;28;20530;-63
2021/11/18 05:20:45;;;;;;;19.15;7.60;;;;;;;1.26;100.00;100436.88;4928894;29;20190;-63
2021/11/18 05:23:32;;;;;;;13.50;7.50;;;;;;;1.22;100.00;100427.19;4948966;28;20060;-65
2021/11/18 05:26:21;;;;;;;13.02;6.90;;;;;;;1.10;100.00;100436.44;4953206;28;20518;-67
2021/11/18 05:29:10;;;;;;;13.15;6.85;;;;;;;1.16;100.00;100434.00;4948969;28;20454;-63
2021/11/18 05:31:55;;;;;;;13.20;6.32;;;;;;;1.29;100.00;100438.69;4940740;28;20054;-67
2021/11/18 05:35:14;;;;;;;13.70;7.38;;;;;;;1.07;100.00;100433.75;4929488;28;20094;-66
2021/11/18 05:38:00;;;;;;;15.45;7.90;;;;;;;1.15;100.00;100442.69;4948439;28;20101;-65
2021/11/18 05:40:45;;;;;;;17.77;8.50;;;;;;;0.90;100.00;100445.44;4931452;28;20139;-64
2021/11/18 05:43:40;;;;;;;16.58;6.90;;;;;;;0.62;100.00;100458.47;4947970;28;20144;-63
2021/11/18 05:46:25;;;;;;;18.23;9.00;;;;;;;0.65;100.00;100430.78;4948811;28;20462;-63
2021/11/18 05:49:10;;;;;;;22.88;9.40;;;;;;;0.30;100.00;100423.59;4935987;28;20416;-64
2021/11/18 05:51:56;;;;;;;18.73;9.48;;;;;;;0.38;100.00;100408.19;4928008;29;20163;-64
2021/11/18 05:54:43;;;;;;;22.27;8.77;;;;;;;0.71;100.00;100422.25;4934305;28;20062;-63
2021/11/18 05:57:28;;;;;;;24.42;10.60;;;;;;;0.65;100.00;100429.88;4959503;28;20823;-64
2021/11/18 06:00:21;;;;;;;20.40;10.95;;;;;;;0.65;100.00;100425.56;4943961;28;20058;-65
2021/11/18 06:03:09;;;;;;;28.92;12.32;;;;;;;0.49;100.00;100428.56;4930551;29;20143;-64
2021/11/18 06:05:57;;;;;;;23.80;9.60;;;;;;;0.40;100.00;100437.81;4933757;28;20054;-65
2021/11/18 06:08:42;;;;;;;25.83;11.50;;;;;;;0.17;100.00;100435.38;4951317;28;20050;-64
2021/11/18 06:11:32;;;;;;;35.17;13.43;;;;;;;0.34;100.00;100427.19;4933304;29;20054;-64
2021/11/18 06:14:20;;;;;;;26.10;11.77;;;;;;;0.41;100.00;100419.63;4926022;29;20055;-65
2021/11/18 06:17:08;;;;;;;25.67;11.68;;;;;;;0.26;100.00;100408.72;4944989;28;20110;-64
2021/11/18 06:19:53;;;;;;;27.90;13.02;;;;;;;0.29;100.00;100407.91;4928932;29;20078;-64
2021/11/18 06:22:39;;;;;;;24.27;12.40;;;;;;;0.34;100.00;100420.25;4943129;28;20054;-63
2021/11/18 06:25:29;;;;;;;33.42;13.75;;;;;;;0.41;100.00;100416.09;4947692;28;20055;-63
2021/11/18 06:28:15;;;;;;;32.88;13.23;;;;;;;0.36;100.00;100407.25;4955517;28;20054;-67
2021/11/18 06:31:07;;;;;;;30.85;13.27;;;;;;;0.37;100.00;100407.31;4948225;28;20054;-62
2021/11/18 06:33:56;;;;;;;30.70;14.23;;;;;;;0.31;100.00;100409.72;4917706;28;20053;-64
2021/11/18 06:36:43;;;;;;;33.65;15.07;;;;;;;0.41;100.00;100398.75;4945987;28;20534;-63
2021/11/18 06:39:28;;;;;;;34.85;14.68;;;;;;;0.50;100.00;100413.75;4947348;28;20093;-63
2021/11/18 06:42:13;;;;;;;;;;;;;;;0.54;100.00;100403.47;4939400;28;20149;-65
2021/11/18 06:45:11;;;;;;;33.70;13.98;;;;;;;0.52;100.00;100399.06;4926292;29;20018;-62
2021/11/18 06:47:59;;;;;;;36.25;14.43;;;;;;;0.51;100.00;100399.91;4937683;28;20057;-63
2021/11/18 06:50:46;;;;;;;38.63;14.55;;;;;;;0.64;100.00;100384.66;4946473;28;20098;-63
2021/11/18 06:53:31;;;;;;;28.40;13.23;;;;;;;0.60;100.00;100379.31;4929889;29;20424;-64
2021/11/18 06:56:19;;;;;;;31.65;14.40;;;;;;;0.68;100.00;100380.41;4946384;28;20078;-64
2021/11/18 06:59:06;;;;;;;32.42;14.02;;;;;;;0.65;100.00;100378.59;4948389;28;20090;-64
2021/11/18 07:01:56;;;;;;;33.15;14.60;;;;;;;0.48;100.00;100378.94;4939871;28;20428;-66
2021/11/18 07:04:45;;;;;;;32.90;13.90;;;;;;;0.57;100.00;100387.03;4936285;28;20054;-65
2021/11/18 07:07:33;;;;;;;33.50;14.32;;;;;;;0.89;100.00;100383.59;4927470;29;20531;-64
2021/11/18 07:10:19;;;;;;;37.03;15.65;;;;;;;0.64;100.00;100382.06;4926861;28;20972;-63
2021/11/18 07:13:27;;;;;;;32.60;13.52;;;;;;;0.49;100.00;100391.13;4941173;28;20102;-64
2021/11/18 07:16:16;;;;;;;35.03;14.10;;;;;;;0.45;100.00;100384.97;4944725;28;20642;-69
2021/11/18 07:19:05;;;;;;;36.60;14.50;;;;;;;0.32;100.00;100382.84;4940968;29;20101;-63
2021/11/18 07:21:50;;;;;;;30.45;13.07;;;;;;;0.17;100.00;100378.00;4952584;28;20575;-65
2021/11/18 07:24:36;;;;;;;34.25;12.45;;;;;;;0.32;100.00;100382.84;4938634;28;20062;-64
2021/11/18 07:27:22;;;;;;;38.13;14.18;;;;;;;0.49;100.00;100379.00;4953514;28;20218;-64
2021/11/18 07:30:08;;;;;;;29.25;13.50;;;;;;;0.53;100.00;100377.34;4941717;29;20105;-65
2021/11/18 07:32:53;;;;;;;31.48;13.45;;;;;;;0.54;100.00;100374.78;4938406;29;20059;-65
2021/11/18 07:35:44;;;;;;;35.10;12.95;;;;;;;0.44;100.00;100390.13;4940142;28;20536;-64
2021/11/18 07:38:31;;;;;;;24.70;11.40;;;;;;;0.21;100.00;100386.84;4954320;28;20053;-64
2021/11/18 07:41:21;;;;;;;35.13;13.80;;;;;;;0.33;100.00;100370.66;4946636;28;20054;-63
2021/11/18 07:44:25;;;;;;;30.92;13.55;;;;;;;0.51;100.00;100368.59;4938816;28;20086;-63
2021/11/18 07:47:34;;;;;;;32.38;13.18;;;;;;;0.58;100.00;100360.09;4885540;29;20116;-65
2021/11/18 07:50:22;;;;;;;31.85;12.20;;;;;;;0.83;100.00;100357.34;4888117;29;20059;-63
2021/11/18 07:53:07;;;;;;;32.40;14.05;;;;;;;0.67;100.00;100350.81;4888451;29;20071;-65
2021/11/18 07:55:53;;;;;;;34.58;12.18;;;;;;;0.51;100.00;100353.81;4887810;29;20051;-67
2021/11/18 07:58:38;;;;;;;38.70;13.70;;;;;;;0.33;100.00;100347.19;4888605;29;20569;-63
2021/11/18 08:01:25;;;;;;;34.05;13.15;;;;;;;0.29;100.00;100345.31;4886666;29;20096;-63
2021/11/18 08:04:10;;;;;;;29.77;12.70;;;;;;;0.32;100.00;100348.03;4889039;29;20055;-63
2021/11/18 08:07:03;;;;;;;33.75;14.18;;;;;;;0.41;100.00;100348.28;4888963;29;20115;-62
2021/11/18 08:09:52;;;;;;;34.60;14.40;;;;;;;0.31;100.00;100351.50;4873079;29;20079;-65
2021/11/18 08:12:38;;;;;;;33.58;12.18;;;;;;;0.38;100.00;100341.28;4886575;29;20060;-65
2021/11/18 08:15:24;;;;;;;34.65;14.73;;;;;;;0.16;100.00;100344.09;4885683;29;20080;-62
2021/11/18 08:18:09;;;;;;;23.13;9.50;;;;;;;0.22;100.00;100340.75;4876537;29;20056;-66
2021/11/18 08:20:54;;;;;;;35.45;14.18;;;;;;;0.21;100.00;100337.28;4875336;29;20055;-65
2021/11/18 08:23:39;;;;;;;29.02;11.55;;;;;;;0.23;100.00;100339.94;4900953;29;20423;-63
2021/11/18 08:26:26;;;;;;;31.58;13.48;;;;;;;0.32;100.00;100327.16;4943236;28;20172;-66
2021/11/18 08:29:15;;;;;;;28.98;12.18;;;;;;;0.19;100.00;100323.31;4945343;28;20090;-68
2021/11/18 08:32:00;;;;;;;30.17;12.65;;;;;;;0.17;100.00;100334.53;4938436;28;20058;-65
2021/11/18 08:35:14;;;;;;;29.13;10.77;;;;;;;0.27;100.00;100313.13;4932344;29;20058;-65
2021/11/18 08:38:06;;;;;;;31.00;12.48;;;;;;;0.26;100.00;100321.75;4939382;28;20066;-67
2021/11/18 08:40:57;;;;;;;25.55;11.68;;;;;;;0.45;100.00;100318.84;4939636;28;20419;-66
2021/11/18 08:43:46;;;;;;;25.55;11.35;;;;;;;0.35;100.00;100304.66;4941084;29;20105;-64
2021/11/18 08:46:33;;;;;;;27.95;11.85;;;;;;;0.29;100.00;100307.09;4938926;29;20055;-65
2021/11/18 08:49:19;;;;;;;;;;;;;;;0.32;100.00;100298.47;4939333;29;20075;-64
2021/11/18 08:52:10;;;;;;;26.45;10.98;;;;;;;0.35;100.00;100304.66;4936567;29;20398;-68
2021/11/18 08:55:11;;;;;;;34.17;13.00;;;;;;;0.41;100.00;100306.56;4956209;28;20050;-63
2021/11/18 08:57:59;;;;;;;27.08;12.05;;;;;;;0.46;100.00;100292.81;4949129;28;20073;-66
2021/11/18 09:00:57;;;;;;;26.80;11.82;;;;;;;0.70;100.00;100280.44;4936424;29;20065;-76
2021/11/18 09:03:44;;;;;;;31.80;12.98;;;;;;;0.66;100.00;100296.84;4947974;28;20094;-72
2021/11/18 09:06:33;;;;;;;25.63;10.45;;;;;;;0.50;100.00;100278.13;4942080;28;20166;-69
2021/11/18 09:09:23;;;;;;;28.48;11.52;;;;;;;0.59;100.00;100261.00;4941155;29;20102;-63
2021/11/18 09:12:10;;;;;;;34.92;13.30;;;;;;;0.60;100.00;100273.22;4960427;28;20098;-63
2021/11/18 09:14:56;;;;;;;30.27;12.13;;;;;;;0.88;100.00;100261.78;4932438;29;20054;-65
2021/11/18 09:17:41;;;;;;;;;;;;;;;0.82;100.00;100269.47;4964092;28;20141;-62
2021/11/18 09:20:42;;;;;;;26.67;10.60;;;;;;;0.54;100.00;100260.00;4942932;28;20360;-65
2021/11/18 09:23:36;;;;;;;24.70;10.98;;;;;;;0.47;100.00;100254.59;4935577;29;20118;-65
2021/11/18 09:26:28;;;;;;;20.60;8.77;;;;;;;0.50;100.00;100252.94;4929305;28;20054;-65
2021/11/18 09:29:14;;;;;;;26.00;11.82;;;;;;;0.94;100.00;100241.94;4943451;28;20482;-66
2021/11/18 09:32:22;;;;;;;28.88;13.02;;;;;;;1.43;100.00;100233.56;4936236;28;20102;-66
2021/11/18 09:35:25;;;;;;;31.00;11.40;;;;;;;2.06;100.00;100237.63;4922951;28;20089;-66
2021/11/18 09:38:20;;;;;;;29.15;12.45;;;;;;;2.03;100.00;100229.72;4942375;28;20056;-66
2021/11/18 09:41:34;;;;;;;22.05;9.60;;;;;;;1.86;100.00;100231.09;4955478;28;20490;-66
2021/11/18 09:44:46;;;;;;;25.63;11.52;;;;;;;1.92;100.00;100259.97;4945242;28;20049;-67
2021/11/18 09:47:59;;;;;;;32.75;12.43;;;;;;;1.66;100.00;100219.31;4954670;28;20078;-65
2021/11/18 09:50:50;;;;;;;24.05;10.55;;;;;;;1.54;100.00;100221.66;4941460;28;20051;-68
2021/11/18 09:53:57;;;;;;;22.20;11.48;;;;;;;1.56;100.00;100214.72;4955935;28;20102;-64
2021/11/18 09:56:57;;;;;;;30.33;12.13;;;;;;;1.42;100.00;100210.91;4949485;28;20144;-66
2021/11/18 10:00:34;;;;;;;26.25;11.98;;;;;;;1.45;100.00;100203.13;4955538;28;20057;-67
2021/11/18 10:03:34;;;;;;;29.02;13.02;;;;;;;1.43;100.00;100210.97;4938346;28;20063;-65
2021/11/18 10:06:22;;;;;;;24.15;11.13;;;;;;;1.17;100.00;100203.34;4907767;29;20126;-65
2021/11/18 10:09:30;;;;;;;33.58;13.27;;;;;;;1.24;100.00;100213.09;4920022;29;20436;-66
2021/11/18 10:12:54;;;;;;;26.13;13.15;;;;;;;1.21;100.00;100202.56;4932171;28;20487;-65
2021/11/18 10:15:54;;;;;;;28.83;13.23;;;;;;;1.19;100.00;100199.03;4937441;29;20474;-65
2021/11/18 10:18:48;;;;;;;32.05;12.77;;;;;;;1.19;100.00;100188.59;4934153;28;20070;-65
2021/11/18 10:21:42;;;;;;;27.17;10.57;;;;;;;1.18;100.00;100182.47;4926845;29;20066;-65
2021/11/18 10:24:33;;;;;;;31.63;12.63;;;;;;;1.23;100.00;100180.00;4921656;29;20117;-63
2021/11/18 10:27:27;;;;;;;32.60;12.95;;;;;;;1.38;100.00;100178.59;4931037;28;20113;-66
2021/11/18 10:30:36;;;;;;;33.45;13.82;;;;;;;1.30;100.00;100174.06;4936025;29;20073;-64
2021/11/18 10:33:28;;;;;;;30.85;12.70;;;;;;;1.37;100.00;100165.50;4925334;29;20523;-64
2021/11/18 10:36:44;;;;;;;29.02;10.88;;;;;;;1.36;100.00;100167.25;4943006;28;20442;-65
2021/11/18 10:40:00;;;;;;;29.25;12.82;;;;;;;1.42;100.00;100162.16;4922150;29;20106;-65
2021/11/18 10:42:50;;;;;;;33.42;12.73;;;;;;;1.41;100.00;100156.88;4935479;28;20502;-68
2021/11/18 10:45:44;;;;;;;30.35;13.25;;;;;;;1.60;100.00;100157.34;4941197;28;20098;-67
2021/11/18 10:48:33;;;;;;;26.83;12.45;;;;;;;1.49;100.00;100152.72;4942369;28;20142;-64
2021/11/18 10:51:38;;;;;;;32.63;12.05;;;;;;;1.56;100.00;100154.63;4940830;28;20096;-70
2021/11/18 10:55:18;;;;;;;26.60;12.00;;;;;;;1.80;100.00;100139.44;4950133;28;20431;-65
2021/11/18 10:58:35;;;;;;;22.95;11.13;;;;;;;2.14;100.00;100131.44;4920439;29;21071;-70
2021/11/18 11:01:27;;;;;;;23.58;11.07;;;;;;;2.06;100.00;100131.25;4880387;29;20121;-66
2021/11/18 11:04:32;;;;;;;26.10;11.88;;;;;;;1.71;100.00;100134.94;4880577;29;20096;-69
2021/11/18 11:07:36;;;;;;;24.83;11.23;;;;;;;1.35;100.00;100117.59;4883166;29;20080;-69
2021/11/18 11:10:24;;;;;;;28.70;12.00;;;;;;;1.13;100.00;100097.94;4872064;29;20511;-67
2021/11/18 11:14:01;;;;;;;23.55;11.10;;;;;;;1.05;100.00;100111.66;4881081;29;20067;-68
2021/11/18 11:16:56;;;;;;;21.98;10.05;;;;;;;1.10;100.00;100097.00;4820646;29;20068;-66
2021/11/18 11:20:07;;;;;;;23.92;11.05;;;;;;;0.99;100.00;100104.56;4840200;29;20061;-63
2021/11/18 11:22:58;;;;;;;21.58;10.68;;;;;;;0.84;100.00;100101.63;4836414;29;20458;-65
2021/11/18 11:26:15;;;;;;;26.40;11.45;;;;;;;0.90;100.00;100088.69;4846359;29;20435;-63
2021/11/18 11:29:22;;;;;;;26.02;11.77;;;;;;;0.87;100.00;100096.44;4831190;29;20073;-68
2021/11/18 11:32:22;;;;;;;22.23;11.43;;;;;;;0.75;100.00;100071.81;4826296;29;20056;-69
2021/11/18 11:35:32;;;;;;;26.45;13.20;;;;;;;0.64;100.00;100095.06;4830118;29;20061;-68
2021/11/18 11:38:37;;;;;;;21.83;10.82;;;;;;;0.50;100.00;100087.72;4838750;29;20131;-64
2021/11/18 11:41:57;;;;;;;28.48;11.52;;;;;;;0.62;100.00;100067.13;4867849;29;20085;-68
2021/11/18 11:45:06;;;;;;;26.15;11.68;;;;;;;0.69;100.00;100066.44;4896816;29;20181;-64
2021/11/18 11:48:09;;;;;;;27.30;10.90;;;;;;;0.57;100.00;100068.75;4892160;29;20078;-65
2021/11/18 11:51:33;;;;;;;30.52;13.95;;;;;;;0.49;100.00;100050.31;4911153;29;20596;-66
2021/11/18 11:54:24;;;;;;;37.90;14.68;;;;;;;0.47;100.00;100040.72;4892175;29;20450;-68
2021/11/18 11:57:21;;;;;;;39.92;14.65;;;;;;;0.74;100.00;100030.94;4873781;29;20124;-69
2021/11/18 12:00:15;;;;;;;27.75;12.45;;;;;;;0.65;100.00;100031.59;4873851;29;20067;-68
2021/11/18 12:03:17;;;;;;;33.17;14.30;;;;;;;0.52;100.00;100026.03;4899746;29;20159;-69
2021/11/18 12:06:20;;;;;;;30.08;13.20;;;;;;;0.52;100.00;100034.75;4929611;28;20316;-66
2021/11/18 12:09:42;;;;;;;33.72;14.73;;;;;;;0.47;100.00;100012.88;4948909;28;20427;-67
2021/11/18 12:12:38;;;;;;;25.23;12.48;;;;;;;0.33;100.00;100016.91;4889444;29;20063;-64
2021/11/18 12:15:24;;;;;;;31.35;12.70;;;;;;;0.33;100.00;100016.00;4914514;29;20075;-65
2021/11/18 12:18:18;;;;;;;35.13;15.68;;;;;;;0.45;100.00;100016.31;4901334;29;20172;-66
2021/11/18 12:21:04;;;;;;;37.00;15.75;;;;;;;0.43;100.00;100011.03;4883956;29;20194;-64
2021/11/18 12:24:21;;;;;;;29.70;13.98;;;;;;;0.38;100.00;100004.84;4909241;29;20419;-63
2021/11/18 12:27:15;;;;;;;28.85;13.77;;;;;;;0.47;100.00;99994.63;4920849;29;20429;-63
2021/11/18 12:30:19;;;;;;;43.30;16.35;;;;;;;0.51;100.00;99991.25;4915378;29;20202;-66
2021/11/18 12:33:33;;;;;;;35.00;15.55;;;;;;;0.48;100.00;99988.59;4905585;29;20530;-65
2021/11/18 12:36:36;;;;;;;33.97;16.35;;;;;;;0.50;100.00;99975.53;4923173;29;20126;-65
2021/11/18 12:39:46;;;;;;;35.70;16.52;;;;;;;0.49;100.00;99977.28;4905584;29;20147;-65
2021/11/18 12:43:07;;;;;;;42.08;17.27;;;;;;;0.56;100.00;99980.91;4911271;29;20051;-67
2021/11/18 12:46:18;;;;;;;38.70;16.35;;;;;;;0.69;100.00;99970.78;4902185;29;20564;-64
2021/11/18 12:49:09;;;;;;;36.75;15.02;;;;;;;0.62;100.00;99981.94;4906071;29;20054;-65
2021/11/18 12:52:12;;;;;;;36.80;16.67;;;;;;;0.61;100.00;99967.13;4907654;29;20531;-66
2021/11/18 12:55:16;;;;;;;37.47;16.30;;;;;;;0.77;100.00;99960.50;4918312;29;20186;-66
2021/11/18 12:58:23;;;;;;;39.72;15.93;;;;;;;0.75;100.00;99955.25;4920973;29;20097;-66
2021/11/18 13:01:31;;;;;;;36.30;16.08;;;;;;;0.69;100.00;99962.97;4949346;28;20053;-65
2021/11/18 13:04:39;;;;;;;39.13;18.10;;;;;;;0.68;100.00;99966.44;4921021;28;20138;-65
2021/11/18 13:07:42;;;;;;;32.55;14.93;;;;;;;0.51;100.00;99948.66;4919349;29;20114;-65
2021/11/18 13:10:34;;;;;;;40.38;17.98;;;;;;;0.68;100.00;99950.78;4923698;28;20139;-66